Time;durP1;ratioP1;P1;durP2;ratioP2;P2;SDS_P1;SDS_P2;PMS_P1;PMS_P2;Temp;Humidity;BMP_temperature;BMP_pressure;BME280_temperature;BME280_humidity;BME280_pressure;Samples;Min_cycle;Max_cycle;Signal;HPM_P1;HPM_P2
2022/01/10 00:01:10;;;;;;;195.60;99.03;;;;;;;0.36;70.66;93589.29;1727016;81;20963;-50
2022/01/10 00:03:36;;;;;;;199.10;100.65;;;;;;;0.29;70.97;93582.08;1732415;82;21061;-51
2022/01/10 00:06:03;;;;;;;220.73;114.17;;;;;;;0.28;71.17;93579.77;1697133;83;21065;-50
2022/01/10 00:08:31;;;;;;;228.02;120.75;;;;;;;0.33;71.28;93587.41;1712838;81;21167;-51
2022/01/10 00:10:59;;;;;;;202.80;106.05;;;;;;;0.32;71.59;93592.64;1710603;81;21830;-52
2022/01/10 00:13:25;;;;;;;195.32;99.75;;;;;;;0.39;71.93;93598.70;1710378;81;21077;-49
2022/01/10 00:15:53;;;;;;;205.87;104.58;;;;;;;0.42;71.51;93591.13;1719722;81;21116;-50
2022/01/10 00:18:23;;;;;;;217.82;111.55;;;;;;;0.32;71.51;93593.42;1717656;81;21035;-51
2022/01/10 00:20:53;;;;;;;194.05;101.80;;;;;;;0.26;71.79;93597.75;1696118;83;20950;-51
2022/01/10 00:23:21;;;;;;;202.05;105.17;;;;;;;0.21;72.03;93600.17;1713045;82;21151;-50
2022/01/10 00:25:50;;;;;;;234.10;111.57;;;;;;;0.23;72.26;93599.17;1712504;83;20938;-50
2022/01/10 00:28:20;;;;;;;221.55;110.60;;;;;;;0.33;72.53;93601.71;1720069;81;21077;-51
2022/01/10 00:30:47;;;;;;;202.82;102.97;;;;;;;0.46;72.35;93608.66;1715141;81;21069;-49
2022/01/10 00:33:15;;;;;;;195.50;100.07;;;;;;;0.55;71.99;93600.19;1727527;82;21581;-51
2022/01/10 00:35:42;;;;;;;192.77;94.35;;;;;;;0.60;72.02;93601.06;1727539;82;21823;-51
2022/01/10 00:38:13;;;;;;;161.90;79.07;;;;;;;0.66;71.67;93604.85;1718268;81;20982;-50
2022/01/10 00:40:42;;;;;;;164.10;81.75;;;;;;;0.57;71.51;93607.91;1723332;82;21065;-49
2022/01/10 00:43:17;;;;;;;156.37;80.62;;;;;;;0.47;71.72;93609.61;1722243;82;21485;-50
2022/01/10 00:45:41;;;;;;;152.30;78.70;;;;;;;0.40;71.98;93615.11;1712211;82;21406;-49
2022/01/10 00:48:11;;;;;;;153.65;79.82;;;;;;;0.41;72.28;93607.78;1713967;82;21065;-51
2022/01/10 00:50:37;;;;;;;152.68;81.53;;;;;;;0.48;72.72;93609.01;1712552;82;20970;-50
2022/01/10 00:53:04;;;;;;;130.15;71.53;;;;;;;0.64;72.75;93616.68;1713639;82;21080;-51
2022/01/10 00:55:31;;;;;;;135.68;71.82;;;;;;;0.72;72.21;93610.53;1708572;83;20978;-50
2022/01/10 00:58:00;;;;;;;136.65;71.70;;;;;;;0.67;72.07;93615.85;1708080;83;21057;-49
2022/01/10 01:00:26;;;;;;;116.42;61.68;;;;;;;0.64;72.44;93607.20;1712194;82;21573;-51
2022/01/10 01:02:52;;;;;;;143.13;73.87;;;;;;;0.66;72.50;93605.42;1722237;81;21053;-49
2022/01/10 01:05:21;;;;;;;187.03;106.60;;;;;;;0.60;72.53;93609.19;1720147;82;21052;-51
2022/01/10 01:07:48;;;;;;;157.70;82.88;;;;;;;0.60;73.04;93613.24;1741793;81;21105;-51
2022/01/10 01:13:11;;;;;;;197.43;91.82;;;;;;;0.69;73.20;93609.44;1741989;81;21775;-49
2022/01/10 01:15:47;;;;;;;96.70;51.48;;;;;;;0.67;73.33;93605.03;1707880;82;21062;-51
2022/01/10 01:26:02;;;;;;;;;;;;;;;0.71;73.19;93603.59;1715709;82;21165;-50
2022/01/10 01:28:32;;;;;;;84.25;44.55;;;;;;;0.68;73.34;93607.91;1714621;81;20147;-50
2022/01/10 01:30:59;;;;;;;64.75;36.53;;;;;;;0.61;73.46;93613.42;1716378;81;21029;-50
2022/01/10 01:33:26;;;;;;;84.85;47.05;;;;;;;0.54;73.69;93607.36;1687911;83;21206;-51
2022/01/10 01:35:53;;;;;;;84.62;49.40;;;;;;;0.51;73.93;93607.61;1728551;81;20985;-50
2022/01/10 01:38:20;;;;;;;76.90;43.78;;;;;;;0.53;73.97;93607.95;1726261;81;21159;-50
2022/01/10 01:40:55;;;;;;;103.70;58.70;;;;;;;0.46;73.96;93610.79;1703101;82;21058;-49
2022/01/10 01:43:17;;;;;;;104.78;61.73;;;;;;;0.34;74.30;93622.17;1724841;81;21541;-50
2022/01/10 01:45:47;;;;;;;103.97;55.33;;;;;;;0.32;74.80;93625.88;1737310;81;21553;-51
2022/01/10 01:48:17;;;;;;;99.30;56.02;;;;;;;0.35;74.93;93626.98;1737648;81;21139;-50
2022/01/10 01:50:45;;;;;;;90.92;51.70;;;;;;;0.35;74.84;93625.62;1707464;83;21148;-49
2022/01/10 01:53:12;;;;;;;86.78;46.73;;;;;;;0.30;75.19;93623.39;1720508;82;20946;-50
2022/01/10 01:55:39;;;;;;;73.35;42.85;;;;;;;0.36;75.59;93623.88;1734841;81;21431;-50
2022/01/10 01:58:09;;;;;;;87.62;47.62;;;;;;;0.45;75.50;93619.30;1712284;81;21073;-49
2022/01/10 02:00:42;;;;;;;74.58;46.77;;;;;;;0.55;76.07;93623.80;1724954;81;21080;-50
2022/01/10 02:03:10;;;;;;;85.05;46.68;;;;;;;0.76;76.14;93628.25;1710298;82;21145;-50
2022/01/10 02:05:37;;;;;;;67.78;41.23;;;;;;;0.91;75.39;93620.08;1687904;83;20954;-50
2022/01/10 02:08:09;;;;;;;72.85;44.42;;;;;;;0.96;74.89;93626.36;1679959;81;21526;-50
2022/01/10 02:10:37;;;;;;;80.62;46.92;;;;;;;0.99;75.20;93622.81;1708700;81;20978;-50
2022/01/10 02:13:04;;;;;;;84.70;48.33;;;;;;;1.14;75.09;93626.06;1724676;81;20954;-48
2022/01/10 02:15:41;;;;;;;85.55;49.15;;;;;;;1.30;74.61;93630.22;1721880;82;21065;-49
2022/01/10 02:18:03;;;;;;;89.87;49.63;;;;;;;1.34;73.78;93631.66;1726829;81;20946;-52
2022/01/10 02:20:32;;;;;;;84.95;44.67;;;;;;;1.24;73.43;93631.86;1718127;81;21082;-49
2022/01/10 02:22:58;;;;;;;64.15;36.53;;;;;;;1.12;73.54;93635.94;1729202;81;21494;-49
2022/01/10 02:25:29;;;;;;;58.30;35.75;;;;;;;1.02;73.42;93634.20;1700231;82;21311;-51
2022/01/10 02:27:57;;;;;;;60.55;36.68;;;;;;;0.95;73.94;93632.20;1717265;81;21145;-50
2022/01/10 02:30:24;;;;;;;81.28;45.88;;;;;;;0.99;74.12;93624.78;1715565;81;21439;-50
2022/01/10 02:32:56;;;;;;;92.53;49.38;;;;;;;1.02;74.22;93626.66;1693286;82;20969;-50
2022/01/10 02:35:27;;;;;;;96.75;49.33;;;;;;;1.10;74.30;93626.11;1692486;83;20961;-49
2022/01/10 02:37:55;;;;;;;110.52;54.40;;;;;;;1.21;74.36;93626.70;1708824;83;20942;-50
2022/01/10 02:40:25;;;;;;;143.07;62.58;;;;;;;1.34;73.90;93630.91;1722191;81;21101;-49
2022/01/10 02:42:55;;;;;;;108.30;51.58;;;;;;;1.33;73.39;93636.91;1746938;81;21407;-50
2022/01/10 02:45:22;;;;;;;106.35;51.40;;;;;;;1.23;73.22;93637.88;1723024;81;21013;-50
2022/01/10 02:47:49;;;;;;;99.07;50.80;;;;;;;1.15;73.28;93631.05;1744939;81;21543;-50
2022/01/10 02:50:18;;;;;;;68.05;42.00;;;;;;;1.11;73.43;93633.66;1728301;82;21011;-50
2022/01/10 02:52:48;;;;;;;71.15;41.30;;;;;;;1.12;73.60;93640.00;1713091;81;21960;-51
2022/01/10 02:55:14;;;;;;;64.85;40.52;;;;;;;1.11;73.60;93642.53;1732234;81;20997;-49
2022/01/10 02:57:44;;;;;;;63.90;37.90;;;;;;;1.13;73.60;93651.01;1720386;82;21422;-50
2022/01/10 03:00:22;;;;;;;71.87;40.20;;;;;;;1.21;73.69;93653.78;1708039;81;20955;-49
2022/01/10 03:02:51;;;;;;;75.60;42.65;;;;;;;1.25;73.43;93653.13;1734598;82;20998;-50
2022/01/10 03:05:24;;;;;;;96.57;48.95;;;;;;;1.33;73.52;93657.83;1712829;81;21811;-49
2022/01/10 03:07:53;;;;;;;;;;;;;;;1.43;73.55;93658.20;1718482;81;21013;-50
2022/01/10 03:10:21;;;;;;;95.17;52.67;;;;;;;1.53;73.53;93658.00;1710978;81;20153;-50
2022/01/10 03:12:48;;;;;;;97.50;53.25;;;;;;;1.64;73.16;93643.66;1691818;81;21481;-50
2022/01/10 03:15:17;;;;;;;171.37;89.70;;;;;;;1.65;72.64;93641.73;1736842;81;21070;-50
2022/01/10 03:17:44;;;;;;;163.35;88.47;;;;;;;1.65;72.72;93658.75;1708557;82;21229;-50
2022/01/10 03:20:14;;;;;;;128.72;69.75;;;;;;;1.64;72.28;93665.34;1729811;82;21029;-49
2022/01/10 03:22:40;;;;;;;126.92;69.22;;;;;;;1.56;72.02;93661.26;1728978;82;20974;-49
2022/01/10 03:25:10;;;;;;;116.12;63.78;;;;;;;1.43;72.28;93660.91;1749115;82;21025;-51
2022/01/10 03:27:38;;;;;;;98.27;56.98;;;;;;;1.34;72.67;93662.81;1654009;84;21751;-50
2022/01/10 03:30:06;;;;;;;108.50;59.18;;;;;;;1.33;72.99;93672.12;1668101;84;21175;-51
2022/01/10 03:32:35;;;;;;;141.05;72.12;;;;;;;1.35;72.97;93665.69;1680096;83;21067;-50
2022/01/10 03:35:05;;;;;;;128.35;64.92;;;;;;;1.35;73.10;93675.78;1678625;84;21010;-50
2022/01/10 03:37:33;;;;;;;127.58;65.45;;;;;;;1.38;72.99;93679.01;1646965;84;21462;-51
2022/01/10 03:39:59;;;;;;;125.55;63.83;;;;;;;1.34;72.79;93683.73;1643896;84;21027;-50
2022/01/10 03:42:26;;;;;;;112.30;62.93;;;;;;;1.34;73.18;93683.13;1706144;81;21163;-50
2022/01/10 03:44:55;;;;;;;117.10;65.12;;;;;;;1.41;73.50;93684.38;1713667;81;20977;-49
2022/01/10 03:47:23;;;;;;;138.05;69.82;;;;;;;1.53;73.41;93685.09;1710179;82;21037;-51
2022/01/10 03:49:50;;;;;;;185.88;91.15;;;;;;;1.68;73.02;93689.69;1710625;81;20970;-49
2022/01/10 03:52:17;;;;;;;176.00;83.78;;;;;;;1.72;72.74;93687.05;1710174;83;20982;-49
2022/01/10 03:54:44;;;;;;;160.55;81.92;;;;;;;1.79;72.50;93685.58;1691983;83;21105;-50
2022/01/10 03:57:11;;;;;;;144.75;76.40;;;;;;;1.88;72.48;93695.27;1714576;81;21541;-51
2022/01/10 03:59:38;;;;;;;126.58;66.50;;;;;;;1.95;72.12;93700.56;1721082;81;21061;-50
2022/01/10 04:02:05;;;;;;;116.08;65.20;;;;;;;1.93;71.59;93704.29;1710790;81;21056;-50
2022/01/10 04:04:38;;;;;;;121.53;68.80;;;;;;;1.81;71.65;93705.66;1723945;81;20951;-50
2022/01/10 04:07:07;;;;;;;111.57;63.40;;;;;;;1.74;71.97;93702.34;1708490;83;21096;-50
2022/01/10 04:09:34;;;;;;;94.65;55.67;;;;;;;1.71;71.89;93716.70;1694244;82;20991;-52
2022/01/10 04:12:00;;;;;;;90.35;54.58;;;;;;;1.59;71.97;93718.69;1717087;82;21561;-50
2022/01/10 04:14:29;;;;;;;83.97;50.17;;;;;;;1.52;72.60;93719.41;1707815;82;21575;-50
2022/01/10 04:17:00;;;;;;;82.53;48.17;;;;;;;1.49;72.47;93716.92;1680914;82;21144;-49
2022/01/10 04:19:27;;;;;;;93.85;52.05;;;;;;;1.44;72.83;93722.83;1701121;82;21541;-50
2022/01/10 04:21:54;;;;;;;111.05;58.08;;;;;;;1.53;73.10;93725.74;1713513;81;21014;-51
2022/01/10 04:24:20;;;;;;;118.87;66.85;;;;;;;1.64;73.14;93730.39;1702947;82;20998;-49
2022/01/10 04:26:47;;;;;;;134.97;71.37;;;;;;;1.75;72.72;93726.30;1715879;82;21040;-49
2022/01/10 04:29:17;;;;;;;124.87;67.15;;;;;;;1.77;72.63;93721.23;1709182;82;21537;-49
2022/01/10 04:31:44;;;;;;;128.18;66.12;;;;;;;1.81;72.38;93732.77;1710019;82;21175;-50
2022/01/10 04:34:16;;;;;;;110.57;62.35;;;;;;;1.86;72.21;93739.66;1703899;81;20954;-50
2022/01/10 04:36:43;;;;;;;114.12;64.82;;;;;;;1.79;71.75;93744.62;1749063;81;20998;-49
2022/01/10 04:39:10;;;;;;;116.67;65.47;;;;;;;1.69;71.94;93746.17;1739922;81;21018;-50
2022/01/10 04:41:39;;;;;;;115.72;66.05;;;;;;;1.67;72.21;93750.49;1712709;82;20963;-50
2022/01/10 04:44:08;;;;;;;86.40;51.53;;;;;;;1.62;72.23;93752.30;1711547;82;21904;-51
2022/01/10 04:46:35;;;;;;;78.67;48.00;;;;;;;1.55;72.44;93750.51;1699979;81;21039;-50
2022/01/10 04:49:03;;;;;;;74.07;43.52;;;;;;;1.49;72.63;93754.10;1711050;82;20990;-50
2022/01/10 04:51:32;;;;;;;83.90;48.13;;;;;;;1.44;72.71;93759.40;1730882;82;21399;-50
2022/01/10 04:53:58;;;;;;;86.78;51.58;;;;;;;1.40;73.05;93761.41;1711931;81;21042;-50
2022/01/10 04:56:30;;;;;;;93.80;51.58;;;;;;;1.42;73.16;93759.63;1744242;81;21072;-50
2022/01/10 04:58:57;;;;;;;88.00;50.70;;;;;;;1.48;73.27;93763.41;1727078;81;21050;-49
2022/01/10 05:01:24;;;;;;;87.47;48.08;;;;;;;1.53;73.04;93760.97;1746746;81;20998;-51
2022/01/10 05:03:52;;;;;;;87.08;47.40;;;;;;;1.53;73.10;93770.45;1716305;82;21719;-51
2022/01/10 05:06:21;;;;;;;100.82;54.25;;;;;;;1.57;73.14;93769.83;1716235;81;21005;-50
2022/01/10 05:08:48;;;;;;;95.15;52.95;;;;;;;1.61;73.05;93773.23;1698931;82;21230;-52
2022/01/10 05:11:22;;;;;;;99.25;54.30;;;;;;;1.66;73.02;93784.95;1742041;81;21010;-51
2022/01/10 05:13:52;;;;;;;87.97;50.88;;;;;;;1.71;72.89;93780.40;1749194;81;21001;-50
2022/01/10 05:16:19;;;;;;;65.40;40.58;;;;;;;1.77;72.93;93782.83;1718911;81;21014;-50
2022/01/10 05:18:46;;;;;;;60.23;36.50;;;;;;;1.79;72.59;93792.66;1730036;82;21053;-48
2022/01/10 05:21:13;;;;;;;63.52;38.05;;;;;;;1.74;72.26;93792.55;1736236;81;21140;-50
2022/01/10 05:23:40;;;;;;;80.25;46.05;;;;;;;1.73;72.58;93798.37;1717046;81;21493;-50
2022/01/10 05:26:15;;;;;;;66.57;39.75;;;;;;;1.76;72.57;93794.85;1694068;82;21068;-51
2022/01/10 05:28:41;;;;;;;60.65;35.15;;;;;;;1.84;72.45;93802.45;1668062;84;20969;-50
2022/01/10 05:31:12;;;;;;;69.40;37.15;;;;;;;1.86;71.99;93799.30;1703013;81;21090;-50
2022/01/10 05:33:47;;;;;;;65.80;36.40;;;;;;;1.80;72.06;93800.37;1719664;81;21159;-51
2022/01/10 05:36:13;;;;;;;54.10;32.93;;;;;;;1.75;72.12;93798.75;1733991;81;20950;-51
2022/01/10 05:38:41;;;;;;;53.20;29.70;;;;;;;1.71;72.09;93807.50;1705747;82;20996;-49
2022/01/10 05:41:08;;;;;;;44.38;24.35;;;;;;;1.66;72.16;93813.41;1700057;82;21051;-52
2022/01/10 05:43:35;;;;;;;39.88;23.42;;;;;;;1.64;72.03;93818.48;1712138;81;21034;-52
2022/01/10 05:46:03;;;;;;;41.68;24.27;;;;;;;1.57;71.85;93814.54;1708792;82;21131;-51
2022/01/10 05:48:31;;;;;;;43.92;25.97;;;;;;;1.49;71.85;93821.23;1713579;82;21160;-50
2022/01/10 05:50:59;;;;;;;36.48;22.15;;;;;;;1.43;71.95;93822.89;1708729;82;21153;-51
2022/01/10 05:53:27;;;;;;;34.40;21.82;;;;;;;1.41;71.89;93830.67;1733267;81;20994;-51
2022/01/10 05:55:56;;;;;;;40.58;22.02;;;;;;;1.39;71.37;93832.25;1709326;83;21025;-52
2022/01/10 05:58:26;;;;;;;34.67;23.07;;;;;;;1.32;71.37;93836.44;1700310;82;21286;-51
2022/01/10 06:00:53;;;;;;;33.65;19.67;;;;;;;1.29;71.43;93837.25;1704394;81;21488;-52
2022/01/10 06:03:21;;;;;;;42.03;22.95;;;;;;;1.24;70.87;93837.13;1725787;82;21021;-51
2022/01/10 06:05:49;;;;;;;35.60;20.15;;;;;;;1.20;71.06;93842.41;1721498;81;21062;-52
2022/01/10 06:08:16;;;;;;;52.60;30.10;;;;;;;1.21;70.87;93846.65;1737907;81;21061;-50
2022/01/10 06:10:43;;;;;;;59.15;31.80;;;;;;;1.17;70.83;93849.40;1726977;82;21151;-51
2022/01/10 06:13:14;;;;;;;57.40;30.80;;;;;;;1.19;70.84;93850.36;1720549;82;21097;-51
2022/01/10 06:15:43;;;;;;;43.10;25.40;;;;;;;1.15;70.65;93856.42;1715573;82;20937;-51
2022/01/10 06:18:10;;;;;;;61.20;27.75;;;;;;;1.13;70.69;93859.52;1695858;82;21598;-52
2022/01/10 06:20:38;;;;;;;50.95;26.75;;;;;;;1.13;70.55;93863.59;1714074;81;21020;-50
2022/01/10 06:23:04;;;;;;;53.92;29.32;;;;;;;1.14;70.48;93875.20;1714820;82;21188;-52
2022/01/10 06:25:33;;;;;;;48.85;25.15;;;;;;;1.12;70.50;93874.84;1707694;83;20938;-49
2022/01/10 06:28:02;;;;;;;65.17;32.58;;;;;;;1.16;70.30;93879.02;1711154;81;21046;-52
2022/01/10 06:30:34;;;;;;;48.13;27.87;;;;;;;1.16;70.37;93888.48;1702530;80;21034;-52
2022/01/10 06:33:01;;;;;;;33.45;21.17;;;;;;;1.19;70.30;93889.05;1735981;80;21447;-52
2022/01/10 06:35:28;;;;;;;37.98;21.90;;;;;;;1.21;70.06;93894.83;1723760;80;21780;-51
2022/01/10 06:37:55;;;;;;;39.88;22.73;;;;;;;1.19;69.79;93899.89;1736474;80;20952;-52
2022/01/10 06:40:22;;;;;;;41.77;22.48;;;;;;;1.13;69.94;93906.91;1755041;80;21061;-50
2022/01/10 06:42:50;;;;;;;41.88;20.72;;;;;;;1.14;69.88;93899.57;1757453;80;20987;-53
2022/01/10 06:45:18;;;;;;;46.08;26.05;;;;;;;1.14;69.79;93908.45;1720721;79;21109;-54
2022/01/10 06:47:47;;;;;;;39.30;21.93;;;;;;;1.13;69.87;93912.33;1746536;80;21147;-53
2022/01/10 06:50:15;;;;;;;32.05;17.73;;;;;;;1.12;69.87;93910.05;1744080;80;21108;-53
2022/01/10 06:52:45;;;;;;;34.13;19.77;;;;;;;1.14;69.91;93915.82;1749730;80;21081;-50
2022/01/10 06:55:12;;;;;;;43.75;23.92;;;;;;;1.15;69.90;93921.41;1740249;80;22011;-51
2022/01/10 06:57:43;;;;;;;53.45;25.45;;;;;;;1.19;70.01;93921.55;1765895;80;21057;-52
2022/01/10 07:00:12;;;;;;;58.40;26.55;;;;;;;1.26;69.79;93930.92;1756610;80;21134;-51
2022/01/10 07:02:41;;;;;;;61.73;27.50;;;;;;;1.30;69.71;93926.22;1734593;79;21081;-55
2022/01/10 07:05:10;;;;;;;56.75;28.38;;;;;;;1.34;69.67;93928.28;1731860;80;21527;-53
2022/01/10 07:07:37;;;;;;;79.30;33.35;;;;;;;1.40;69.43;93929.95;1722101;80;21031;-54
2022/01/10 07:10:07;;;;;;;75.72;37.40;;;;;;;1.38;69.35;93932.31;1744612;80;21105;-54
2022/01/10 07:12:34;;;;;;;90.47;43.42;;;;;;;1.37;69.21;93939.69;1727786;79;21147;-51
2022/01/10 07:15:04;;;;;;;89.20;48.63;;;;;;;1.34;69.24;93943.19;1737415;80;21062;-51
2022/01/10 07:17:30;;;;;;;81.15;41.10;;;;;;;1.32;69.38;93955.02;1721780;82;20999;-53
2022/01/10 07:20:00;;;;;;;82.82;44.60;;;;;;;1.33;69.39;93953.84;1716898;80;21044;-50
2022/01/10 07:22:31;;;;;;;79.25;39.90;;;;;;;1.38;69.45;93961.54;1742864;80;21120;-50
2022/01/10 07:24:57;;;;;;;92.45;40.83;;;;;;;1.43;69.47;93961.65;1764878;80;21139;-50
2022/01/10 07:27:24;;;;;;;91.25;40.50;;;;;;;1.44;69.47;93966.67;1753917;80;21330;-50
2022/01/10 07:29:51;;;;;;;78.02;37.08;;;;;;;1.49;69.60;93965.45;1731857;80;20904;-50
2022/01/10 07:32:21;;;;;;;68.72;33.95;;;;;;;1.56;69.50;93963.42;1743848;80;21010;-52
2022/01/10 07:34:50;;;;;;;79.70;32.10;;;;;;;1.60;69.16;93971.48;1739637;80;20982;-51
2022/01/10 07:37:18;;;;;;;81.97;36.58;;;;;;;1.59;68.85;93974.80;1740692;80;21943;-52
2022/01/10 07:39:44;;;;;;;84.72;37.67;;;;;;;1.60;68.98;93983.67;1722688;81;21683;-52
2022/01/10 07:42:11;;;;;;;144.55;56.75;;;;;;;1.64;68.88;93979.75;1740826;80;21010;-50
2022/01/10 07:44:46;;;;;;;136.92;57.17;;;;;;;1.75;68.69;93984.44;1733978;80;21136;-49
2022/01/10 07:47:21;;;;;;;151.47;66.05;;;;;;;1.79;68.18;93986.50;1738512;80;21064;-48
2022/01/10 07:49:48;;;;;;;116.53;50.67;;;;;;;1.74;68.03;93996.45;1748710;80;21089;-51
2022/01/10 07:52:18;;;;;;;110.97;53.35;;;;;;;1.72;68.10;94001.50;1740826;80;20942;-56
2022/01/10 07:54:47;;;;;;;94.75;44.80;;;;;;;1.73;68.24;94003.03;1744416;80;21101;-53
2022/01/10 07:57:13;;;;;;;91.92;47.25;;;;;;;1.78;68.35;93999.88;1692856;82;21096;-52
2022/01/10 07:59:40;;;;;;;101.42;47.53;;;;;;;1.82;68.19;94003.30;1709197;81;21053;-50
2022/01/10 08:02:08;;;;;;;97.50;51.35;;;;;;;1.81;68.18;94009.30;1739965;80;22470;-52
2022/01/10 08:04:36;;;;;;;87.33;45.28;;;;;;;1.83;68.31;94009.69;1744493;80;21066;-49
2022/01/10 08:07:06;;;;;;;86.90;39.23;;;;;;;1.92;68.18;94002.39;1750266;80;21284;-48
2022/01/10 08:09:33;;;;;;;65.97;30.80;;;;;;;1.98;68.05;94013.70;1739714;80;21139;-52
2022/01/10 08:12:00;;;;;;;50.95;26.17;;;;;;;2.00;67.84;94017.37;1720511;80;21086;-49
2022/01/10 08:14:29;;;;;;;53.38;26.93;;;;;;;1.93;67.74;94018.84;1744600;80;21157;-50
2022/01/10 08:16:57;;;;;;;72.17;30.27;;;;;;;1.88;67.78;94017.35;1748775;80;21473;-52
2022/01/10 08:19:24;;;;;;;78.78;32.78;;;;;;;1.94;67.92;94020.38;1706985;81;21099;-50
2022/01/10 08:21:50;;;;;;;66.33;28.98;;;;;;;2.04;67.59;94025.64;1699851;82;22205;-54
2022/01/10 08:24:19;;;;;;;65.60;29.57;;;;;;;2.09;67.33;94029.23;1742213;80;21041;-53
2022/01/10 08:26:47;;;;;;;82.50;39.63;;;;;;;2.15;67.30;94032.25;1736438;80;21451;-55
2022/01/10 08:29:17;;;;;;;162.62;79.80;;;;;;;2.16;66.88;94037.86;1737319;80;21117;-50
2022/01/10 08:31:45;;;;;;;152.60;78.10;;;;;;;2.17;66.88;94038.03;1748571;80;21617;-54
2022/01/10 08:34:13;;;;;;;87.30;44.42;;;;;;;2.27;66.63;94039.80;1733024;80;21137;-54
2022/01/10 08:36:42;;;;;;;95.90;45.12;;;;;;;2.32;66.47;94031.22;1734896;80;21007;-51
2022/01/10 08:39:11;;;;;;;110.52;50.45;;;;;;;2.30;66.23;94037.05;1725470;80;21151;-51
2022/01/10 08:41:38;;;;;;;94.32;41.10;;;;;;;2.29;66.37;94029.33;1705087;80;21502;-53
2022/01/10 08:44:07;;;;;;;98.60;41.55;;;;;;;2.34;66.19;94026.89;1736803;80;21330;-53
2022/01/10 08:46:36;;;;;;;73.37;35.83;;;;;;;2.39;66.21;94029.73;1731963;80;21134;-56
2022/01/10 08:49:03;;;;;;;68.75;34.78;;;;;;;2.45;66.28;94027.50;1719407;80;21137;-53
2022/01/10 08:51:33;;;;;;;104.40;47.08;;;;;;;2.52;65.96;94026.02;1714481;81;21830;-51
2022/01/10 08:53:59;;;;;;;65.92;33.78;;;;;;;2.58;65.86;94029.03;1702180;82;21060;-54
2022/01/10 08:56:26;;;;;;;66.82;32.73;;;;;;;2.61;65.56;94037.12;1708023;81;21183;-51
2022/01/10 08:58:53;;;;;;;71.70;31.35;;;;;;;2.62;65.62;94035.16;1686714;82;21089;-54
2022/01/10 09:01:22;;;;;;;69.87;34.23;;;;;;;2.66;65.72;94034.53;1700791;82;21607;-51
2022/01/10 09:03:51;;;;;;;69.60;33.95;;;;;;;2.76;65.54;94042.50;1699135;81;21133;-53
2022/01/10 09:06:18;;;;;;;65.50;32.33;;;;;;;2.87;65.38;94041.70;1738028;80;21021;-51
2022/01/10 09:08:47;;;;;;;58.42;31.45;;;;;;;2.93;65.07;94047.42;1710232;81;21219;-51
2022/01/10 09:11:14;;;;;;;62.83;31.20;;;;;;;2.90;65.03;94044.19;1730736;80;21056;-56
2022/01/10 09:13:41;;;;;;;59.08;30.92;;;;;;;2.92;65.17;94057.55;1745032;80;22181;-53
2022/01/10 09:16:09;;;;;;;57.58;29.67;;;;;;;2.95;64.92;94060.78;1686636;82;22471;-53
2022/01/10 09:18:36;;;;;;;55.60;26.35;;;;;;;2.97;64.65;94058.98;1711591;82;20978;-53
2022/01/10 09:21:03;;;;;;;57.20;30.25;;;;;;;2.98;64.42;94063.23;1699089;80;21248;-53
2022/01/10 09:23:30;;;;;;;65.08;34.25;;;;;;;2.95;64.46;94061.36;1728933;80;21073;-52
2022/01/10 09:26:03;;;;;;;54.95;31.75;;;;;;;2.95;64.39;94070.28;1734623;80;21054;-55
2022/01/10 09:28:29;;;;;;;52.48;28.30;;;;;;;3.02;64.38;94063.97;1732871;79;21530;-52
2022/01/10 09:30:57;;;;;;;59.88;30.08;;;;;;;3.01;64.42;94066.48;1742297;80;21080;-51
2022/01/10 09:33:23;;;;;;;62.27;31.52;;;;;;;3.03;64.41;94068.22;1746209;80;21135;-54
2022/01/10 09:35:51;;;;;;;54.73;33.38;;;;;;;3.10;64.29;94076.23;1739360;80;21072;-54
2022/01/10 09:38:18;;;;;;;61.53;33.13;;;;;;;3.14;64.21;94070.91;1712691;81;21049;-54
2022/01/10 09:40:45;;;;;;;55.43;29.32;;;;;;;3.15;64.23;94075.74;1710682;82;21226;-51
2022/01/10 09:43:12;;;;;;;52.70;28.70;;;;;;;3.15;64.49;94076.52;1702651;82;21857;-53
2022/01/10 09:45:40;;;;;;;65.00;36.40;;;;;;;3.15;64.30;94074.38;1737600;80;21968;-54
2022/01/10 09:48:07;;;;;;;60.23;35.45;;;;;;;3.10;64.30;94071.58;1689865;82;21082;-52
2022/01/10 09:50:34;;;;;;;56.28;27.62;;;;;;;3.17;64.45;94076.09;1675810;83;21554;-52
2022/01/10 09:53:01;;;;;;;57.95;29.20;;;;;;;3.24;64.13;94082.77;1693366;81;21138;-54
2022/01/10 09:55:31;;;;;;;47.43;23.20;;;;;;;3.24;63.85;94081.41;1693640;82;21055;-54
2022/01/10 09:57:57;;;;;;;48.92;23.32;;;;;;;3.21;63.69;94078.17;1739575;80;21316;-52
2022/01/10 10:00:27;;;;;;;43.45;22.95;;;;;;;3.17;63.68;94074.73;1716128;81;21057;-56
2022/01/10 10:02:54;;;;;;;61.90;29.77;;;;;;;3.15;63.73;94084.67;1736408;80;21023;-53
2022/01/10 10:05:21;;;;;;;52.35;26.02;;;;;;;3.13;63.67;94083.55;1704617;82;21468;-56
2022/01/10 10:07:48;;;;;;;71.67;34.03;;;;;;;3.12;63.68;94082.80;1730086;80;21077;-53
2022/01/10 10:10:15;;;;;;;61.53;31.00;;;;;;;3.13;63.66;94084.91;1749592;80;21413;-53
2022/01/10 10:12:44;;;;;;;77.08;39.55;;;;;;;3.18;63.95;94083.05;1752430;80;21012;-52
2022/01/10 10:15:12;;;;;;;74.90;38.40;;;;;;;3.24;63.92;94081.41;1749193;80;21130;-57
2022/01/10 10:17:43;;;;;;;75.85;35.15;;;;;;;3.30;63.94;94084.59;1740749;80;21556;-53
2022/01/10 10:20:12;;;;;;;62.48;29.87;;;;;;;3.39;63.85;94079.97;1738483;80;21041;-56
2022/01/10 10:22:39;;;;;;;65.10;28.57;;;;;;;3.51;63.54;94086.30;1743731;80;21393;-55
2022/01/10 10:25:08;;;;;;;59.05;32.25;;;;;;;3.63;63.13;94098.50;1723404;80;21052;-52
2022/01/10 10:27:43;;;;;;;73.78;35.30;;;;;;;3.68;62.40;94100.14;1747882;80;20975;-55
2022/01/10 10:30:26;;;;;;;80.30;40.38;;;;;;;3.68;62.31;94093.34;1748399;80;21854;-56
2022/01/10 10:32:55;;;;;;;60.08;31.85;;;;;;;3.68;62.05;94097.42;1735080;80;21058;-55
2022/01/10 10:35:21;;;;;;;67.45;32.38;;;;;;;3.66;62.03;94092.24;1743480;80;21087;-54
2022/01/10 10:37:52;;;;;;;60.75;30.00;;;;;;;3.68;62.01;94095.31;1740366;80;21048;-55
2022/01/10 10:40:19;;;;;;;44.65;23.10;;;;;;;3.71;62.02;94093.11;1700553;81;21081;-55
2022/01/10 10:42:46;;;;;;;55.10;23.10;;;;;;;3.78;61.88;94097.81;1742860;80;21821;-55
2022/01/10 10:45:14;;;;;;;44.65;22.10;;;;;;;3.78;61.68;94099.17;1753375;79;21026;-53
2022/01/10 10:47:44;;;;;;;54.00;24.65;;;;;;;3.74;61.38;94099.06;1741707;80;21060;-55
2022/01/10 10:50:11;;;;;;;59.53;27.00;;;;;;;3.79;61.41;94108.87;1735825;80;21118;-53
2022/01/10 10:52:39;;;;;;;63.00;30.12;;;;;;;3.87;61.12;94110.25;1698109;82;21161;-54
2022/01/10 10:55:10;;;;;;;54.70;28.73;;;;;;;3.93;60.50;94109.95;1743614;80;21140;-55
2022/01/10 10:57:37;;;;;;;55.75;27.52;;;;;;;3.92;60.34;94109.77;1732195;80;20982;-55
2022/01/10 11:00:07;;;;;;;51.40;26.85;;;;;;;3.90;60.46;94111.37;1744186;80;21188;-55
2022/01/10 11:02:34;;;;;;;47.65;24.37;;;;;;;3.88;60.67;94109.05;1741140;79;21470;-54
2022/01/10 11:05:04;;;;;;;51.23;27.80;;;;;;;3.83;60.88;94111.53;1701930;81;21104;-56
2022/01/10 11:07:32;;;;;;;50.52;27.37;;;;;;;3.75;60.99;94116.34;1742508;80;21872;-54
2022/01/10 11:09:59;;;;;;;52.38;25.88;;;;;;;3.73;61.05;94111.88;1719028;80;20995;-55
2022/01/10 11:12:25;;;;;;;54.40;27.25;;;;;;;3.66;61.14;94109.31;1715196;81;20942;-54
2022/01/10 11:14:59;;;;;;;53.25;24.85;;;;;;;3.72;61.24;94113.07;1670387;83;21060;-57
2022/01/10 11:17:27;;;;;;;59.33;26.23;;;;;;;3.81;61.18;94112.52;1655228;84;21114;-55
2022/01/10 11:20:13;;;;;;;54.25;25.70;;;;;;;3.88;60.93;94111.78;1748863;80;21066;-55
2022/01/10 11:22:41;;;;;;;60.17;29.42;;;;;;;3.98;60.76;94117.61;1705832;81;21053;-57
2022/01/10 11:25:33;;;;;;;50.78;25.25;;;;;;;3.96;60.77;94119.98;1746177;80;21210;-53
2022/01/10 11:28:07;;;;;;;51.13;25.25;;;;;;;3.90;60.94;94112.13;1743925;80;38356;-54
2022/01/10 11:30:44;;;;;;;43.08;24.10;;;;;;;3.84;61.06;94121.97;1745497;80;21140;-53
2022/01/10 11:33:16;;;;;;;43.25;24.12;;;;;;;3.83;60.87;94127.23;1705091;81;21235;-55
2022/01/10 11:36:02;;;;;;;59.70;29.42;;;;;;;3.74;61.12;94124.33;1745044;80;21099;-56
2022/01/10 11:38:49;;;;;;;54.75;28.25;;;;;;;3.72;61.37;94116.40;1712522;81;21512;-55
2022/01/10 11:41:25;;;;;;;66.20;33.30;;;;;;;3.69;61.51;94123.43;1711906;82;21037;-56